Time;durP1;ratioP1;P1;durP2;ratioP2;P2;SDS_P1;SDS_P2;PMS_P1;PMS_P2;Temp;Humidity;BMP_temperature;BMP_pressure;BME280_temperature;BME280_humidity;BME280_pressure;Samples;Min_cycle;Max_cycle;Signal;HPM_P1;HPM_P2
2022/04/20 00:00:47;;;;;;;;;;;11.30;23.30;;;;;;4975843;28;19926;-78
2022/04/20 00:03:14;;;;;;;;;;;11.20;23.70;;;;;;4978646;28;19933;-77
2022/04/20 00:05:42;;;;;;;;;;;11.20;23.80;;;;;;4971758;28;19932;-77
2022/04/20 00:08:09;;;;;;;;;;;11.10;23.60;;;;;;4975921;28;20204;-78
2022/04/20 00:10:35;;;;;;;;;;;11.10;23.70;;;;;;4973543;28;19939;-76
2022/04/20 00:13:02;;;;;;;;;;;11.10;23.40;;;;;;4997256;28;20478;-76
2022/04/20 00:15:29;;;;;;;;;;;11.10;23.40;;;;;;4978262;28;19933;-77
2022/04/20 00:17:55;;;;;;;;;;;11.10;23.40;;;;;;4988033;28;19936;-79
2022/04/20 00:20:22;;;;;;;;;;;11.00;23.50;;;;;;4974691;28;20068;-80
2022/04/20 00:22:50;;;;;;;;;;;10.90;23.30;;;;;;4988382;28;19932;-77
2022/04/20 00:25:17;;;;;;;;;;;10.90;23.70;;;;;;4985037;28;20580;-76
2022/04/20 00:27:43;;;;;;;;;;;10.80;23.80;;;;;;4978171;28;19928;-76
2022/04/20 00:30:12;;;;;;;;;;;10.80;23.80;;;;;;4978915;28;20069;-78
2022/04/20 00:32:39;;;;;;;;;;;10.80;24.20;;;;;;4976025;28;19926;-77
2022/04/20 00:35:06;;;;;;;;;;;10.70;23.90;;;;;;4984485;28;19934;-81
2022/04/20 00:37:34;;;;;;;;;;;10.70;23.90;;;;;;4981514;28;19941;-78
2022/04/20 00:40:02;;;;;;;;;;;10.70;24.10;;;;;;4978949;28;19932;-77
2022/04/20 00:42:29;;;;;;;;;;;10.70;23.80;;;;;;4980614;28;20307;-75
2022/04/20 00:44:56;;;;;;;;;;;10.70;23.80;;;;;;4978832;28;20465;-75
2022/04/20 00:47:24;;;;;;;;;;;10.70;23.90;;;;;;4983411;28;19927;-76
2022/04/20 00:49:54;;;;;;;;;;;10.60;23.90;;;;;;4972835;28;20014;-75
2022/04/20 00:52:21;;;;;;;;;;;10.60;24.10;;;;;;4975382;28;20021;-76
2022/04/20 00:54:48;;;;;;;;;;;10.50;24.20;;;;;;4974559;28;19933;-75
2022/04/20 00:57:16;;;;;;;;;;;10.50;24.20;;;;;;4977693;28;19976;-76
2022/04/20 00:59:43;;;;;;;;;;;10.40;24.30;;;;;;4976587;28;19926;-75
2022/04/20 01:02:10;;;;;;;;;;;10.50;24.30;;;;;;4980390;28;19932;-76
2022/04/20 01:04:36;;;;;;;;;;;10.40;24.20;;;;;;4982322;28;19930;-75
2022/04/20 01:07:10;;;;;;;;;;;10.40;24.40;;;;;;4986145;28;19936;-75
2022/04/20 01:09:37;;;;;;;;;;;10.30;24.40;;;;;;4982477;28;19937;-75
2022/04/20 01:12:04;;;;;;;;;;;10.30;24.60;;;;;;4979478;28;20020;-75
2022/04/20 01:14:32;;;;;;;;;;;10.30;24.70;;;;;;4981530;28;19926;-76
2022/04/20 01:16:59;;;;;;;;;;;10.20;24.70;;;;;;4981866;28;19926;-75
2022/04/20 01:19:32;;;;;;;;;;;10.20;24.80;;;;;;4979308;28;20003;-75
2022/04/20 01:22:00;;;;;;;;;;;10.10;24.90;;;;;;4980942;28;19926;-75
2022/04/20 01:24:26;;;;;;;;;;;10.10;24.70;;;;;;4979416;28;19940;-74
2022/04/20 01:26:53;;;;;;;;;;;10.10;24.80;;;;;;4979892;28;19933;-74
2022/04/20 01:29:20;;;;;;;;;;;10.00;24.90;;;;;;4987897;28;20564;-75
2022/04/20 01:31:47;;;;;;;;;;;10.00;25.00;;;;;;4985858;28;19940;-75
2022/04/20 01:34:13;;;;;;;;;;;10.00;25.00;;;;;;4980220;28;19933;-75
2022/04/20 01:36:40;;;;;;;;;;;10.00;25.10;;;;;;4981451;28;19926;-75
2022/04/20 01:39:08;;;;;;;;;;;9.90;25.80;;;;;;4978832;28;20008;-74
2022/04/20 01:41:37;;;;;;;;;;;9.90;25.70;;;;;;5024871;28;19943;-75
2022/04/20 01:44:04;;;;;;;;;;;9.90;26.20;;;;;;4979796;28;19926;-75
2022/04/20 01:46:31;;;;;;;;;;;9.90;25.90;;;;;;4978864;28;19934;-75
2022/04/20 01:48:59;;;;;;;;;;;9.90;26.00;;;;;;4977797;28;19941;-75
2022/04/20 01:54:11;;;;;;;;;;;9.80;25.90;;;;;;4983599;28;19968;-75
2022/04/20 01:56:37;;;;;;;;;;;9.80;26.30;;;;;;4975464;28;19932;-75
2022/04/20 01:59:04;;;;;;;;;;;9.80;26.10;;;;;;4988421;28;19926;-76
2022/04/20 02:04:15;;;;;;;;;;;9.70;26.30;;;;;;4976564;28;20441;-75
2022/04/20 02:06:42;;;;;;;;;;;9.70;26.30;;;;;;4978979;28;19999;-75
2022/04/20 02:09:08;;;;;;;;;;;9.70;26.40;;;;;;4997797;28;19936;-76
2022/04/20 02:11:36;;;;;;;;;;;9.70;26.10;;;;;;4983449;28;20296;-75
2022/04/20 02:14:03;;;;;;;;;;;9.70;26.10;;;;;;4977058;28;20373;-75
2022/04/20 02:16:30;;;;;;;;;;;9.70;26.20;;;;;;4979005;28;20430;-76
2022/04/20 02:18:57;;;;;;;;;;;9.60;26.20;;;;;;4994299;28;20306;-75
2022/04/20 02:21:24;;;;;;;;;;;9.60;26.20;;;;;;4984459;28;19953;-76
2022/04/20 02:23:50;;;;;;;;;;;9.60;26.30;;;;;;4980333;28;19934;-76
2022/04/20 02:26:17;;;;;;;;;;;9.60;26.60;;;;;;4987806;28;19934;-76
2022/04/20 02:28:45;;;;;;;;;;;9.50;26.40;;;;;;4979693;28;19933;-75
2022/04/20 02:31:12;;;;;;;;;;;9.60;26.60;;;;;;4979421;28;20007;-76
2022/04/20 02:33:38;;;;;;;;;;;9.50;26.80;;;;;;4978246;28;19933;-76
2022/04/20 02:36:05;;;;;;;;;;;9.50;26.70;;;;;;4982389;28;19929;-75
2022/04/20 02:38:32;;;;;;;;;;;9.40;26.80;;;;;;4978837;28;19934;-77
2022/04/20 02:40:59;;;;;;;;;;;9.40;26.90;;;;;;4984244;28;20002;-76
2022/04/20 02:43:25;;;;;;;;;;;9.40;27.00;;;;;;4979327;28;19929;-75
2022/04/20 02:45:54;;;;;;;;;;;9.30;27.10;;;;;;4978663;28;20435;-75
2022/04/20 02:48:20;;;;;;;;;;;9.30;27.30;;;;;;4979634;28;19945;-75
2022/04/20 02:50:47;;;;;;;;;;;9.30;27.30;;;;;;4976050;28;19930;-75
2022/04/20 02:53:13;;;;;;;;;;;9.20;27.50;;;;;;4976935;28;19932;-75
2022/04/20 02:55:42;;;;;;;;;;;9.30;27.20;;;;;;4979831;28;20011;-75
2022/04/20 02:58:08;;;;;;;;;;;9.30;27.30;;;;;;4980828;28;19926;-75
2022/04/20 03:00:35;;;;;;;;;;;9.20;27.40;;;;;;4976535;28;19936;-75
2022/04/20 03:03:03;;;;;;;;;;;9.20;27.40;;;;;;4982991;28;19948;-75
2022/04/20 03:05:30;;;;;;;;;;;9.20;27.60;;;;;;4973707;28;20010;-75
2022/04/20 03:07:57;;;;;;;;;;;9.20;27.60;;;;;;4982246;28;20020;-75
2022/04/20 03:10:23;;;;;;;;;;;9.10;27.60;;;;;;4974467;28;19949;-75
2022/04/20 03:12:50;;;;;;;;;;;9.10;27.60;;;;;;4984221;28;20051;-75
2022/04/20 03:15:17;;;;;;;;;;;9.10;27.70;;;;;;4978006;28;20405;-75
2022/04/20 03:17:44;;;;;;;;;;;9.10;27.60;;;;;;4981632;28;20082;-75
2022/04/20 03:20:12;;;;;;;;;;;9.10;27.70;;;;;;4984292;28;19960;-75
2022/04/20 03:22:39;;;;;;;;;;;9.00;27.90;;;;;;4979629;28;20292;-75
2022/04/20 03:25:06;;;;;;;;;;;9.00;27.80;;;;;;4980466;28;19930;-75
2022/04/20 03:27:33;;;;;;;;;;;9.00;28.10;;;;;;4979538;28;19928;-76
2022/04/20 03:29:59;;;;;;;;;;;9.00;27.90;;;;;;4976834;28;20036;-75
2022/04/20 03:32:26;;;;;;;;;;;9.00;28.00;;;;;;4977157;28;20038;-76
2022/04/20 03:34:54;;;;;;;;;;;8.90;28.30;;;;;;5002108;28;19928;-75
2022/04/20 03:37:22;;;;;;;;;;;8.90;28.40;;;;;;4976167;28;19927;-75
2022/04/20 03:39:49;;;;;;;;;;;8.90;28.50;;;;;;4979483;28;20281;-75
2022/04/20 03:42:15;;;;;;;;;;;8.90;28.30;;;;;;4982328;28;20007;-75
2022/04/20 03:44:42;;;;;;;;;;;8.90;28.50;;;;;;5037317;28;19925;-75
2022/04/20 03:47:10;;;;;;;;;;;8.80;28.60;;;;;;5016766;28;19954;-75
2022/04/20 03:49:36;;;;;;;;;;;8.80;28.70;;;;;;4976044;28;20406;-76
2022/04/20 03:52:03;;;;;;;;;;;8.70;29.00;;;;;;4982718;28;19926;-75
2022/04/20 03:54:31;;;;;;;;;;;8.70;28.90;;;;;;5002263;28;19943;-78
2022/04/20 03:57:04;;;;;;;;;;;8.70;29.00;;;;;;4984664;28;19937;-76
2022/04/20 03:59:31;;;;;;;;;;;8.70;29.30;;;;;;4976516;28;19934;-78
2022/04/20 04:01:57;;;;;;;;;;;8.60;29.30;;;;;;4979275;28;20041;-76
2022/04/20 04:04:24;;;;;;;;;;;8.60;29.30;;;;;;4980613;28;19999;-76
2022/04/20 04:06:51;;;;;;;;;;;8.70;29.20;;;;;;4983459;28;19929;-76
2022/04/20 04:09:18;;;;;;;;;;;8.60;29.40;;;;;;4987006;28;20017;-76
2022/04/20 04:11:46;;;;;;;;;;;8.60;29.20;;;;;;4978450;28;20033;-76
2022/04/20 04:14:12;;;;;;;;;;;8.60;29.30;;;;;;4983065;28;19933;-76
2022/04/20 04:16:40;;;;;;;;;;;8.50;29.20;;;;;;4986940;28;19925;-76
2022/04/20 04:19:07;;;;;;;;;;;8.60;29.20;;;;;;4981431;28;20358;-76
2022/04/20 04:21:35;;;;;;;;;;;8.60;29.40;;;;;;4980463;28;19932;-76
2022/04/20 04:24:02;;;;;;;;;;;8.50;29.50;;;;;;4981316;28;19930;-76
2022/04/20 04:26:30;;;;;;;;;;;8.50;29.70;;;;;;4979745;28;20012;-75
2022/04/20 04:28:58;;;;;;;;;;;8.40;29.70;;;;;;4978610;28;19933;-76
2022/04/20 04:31:25;;;;;;;;;;;8.40;29.90;;;;;;4982457;28;19937;-76
2022/04/20 04:33:51;;;;;;;;;;;8.30;29.90;;;;;;5003985;28;20029;-77
2022/04/20 04:36:18;;;;;;;;;;;8.40;30.00;;;;;;4980473;28;19934;-76
2022/04/20 04:38:44;;;;;;;;;;;8.30;29.90;;;;;;4987957;28;20012;-76
2022/04/20 04:41:11;;;;;;;;;;;8.40;29.70;;;;;;4971363;28;20414;-76
2022/04/20 04:43:38;;;;;;;;;;;8.40;29.70;;;;;;4994261;28;21222;-76
2022/04/20 04:48:51;;;;;;;;;;;8.50;29.80;;;;;;4983613;28;19940;-76
2022/04/20 04:51:18;;;;;;;;;;;8.40;29.80;;;;;;4978671;28;19933;-76
2022/04/20 04:53:45;;;;;;;;;;;8.40;30.00;;;;;;4980935;28;19995;-76
2022/04/20 04:56:11;;;;;;;;;;;8.40;30.00;;;;;;4979131;28;19949;-76
2022/04/20 04:58:38;;;;;;;;;;;8.40;30.40;;;;;;5017605;28;19973;-78
2022/04/20 05:01:06;;;;;;;;;;;8.40;30.20;;;;;;4977910;28;20028;-75
2022/04/20 05:03:33;;;;;;;;;;;8.50;30.10;;;;;;4987037;28;19924;-76
2022/04/20 05:05:59;;;;;;;;;;;8.50;30.10;;;;;;4980699;28;19926;-75
2022/04/20 05:08:26;;;;;;;;;;;8.50;29.90;;;;;;4987585;28;19926;-75
2022/04/20 05:10:53;;;;;;;;;;;8.60;30.10;;;;;;4979851;28;19933;-77
2022/04/20 05:13:19;;;;;;;;;;;8.60;29.90;;;;;;4979825;28;19932;-75
2022/04/20 05:15:46;;;;;;;;;;;8.60;30.00;;;;;;4977487;28;19926;-75
2022/04/20 05:18:14;;;;;;;;;;;8.70;29.90;;;;;;4982073;28;19985;-76
2022/04/20 05:20:41;;;;;;;;;;;8.70;29.60;;;;;;4979768;28;20446;-76
2022/04/20 05:23:08;;;;;;;;;;;8.80;29.30;;;;;;4983292;28;20356;-76
2022/04/20 05:25:35;;;;;;;;;;;8.80;29.40;;;;;;4980883;28;20373;-76
2022/04/20 05:28:01;;;;;;;;;;;8.80;29.10;;;;;;4977967;28;20444;-76
2022/04/20 05:30:28;;;;;;;;;;;8.90;29.10;;;;;;4987353;28;19948;-76
2022/04/20 05:32:55;;;;;;;;;;;8.90;29.30;;;;;;4996715;28;19956;-76
2022/04/20 05:35:23;;;;;;;;;;;8.90;29.60;;;;;;4987620;28;19925;-76
2022/04/20 05:43:18;;;;;;;;;;;8.90;29.30;;;;;;4988603;28;19933;-75
2022/04/20 05:45:45;;;;;;;;;;;9.00;29.50;;;;;;5016558;28;20007;-75
2022/04/20 05:48:14;;;;;;;;;;;9.10;29.50;;;;;;5025215;28;22059;-75
2022/04/20 05:50:43;;;;;;;;;;;9.10;29.30;;;;;;4975891;28;19941;-76
2022/04/20 05:53:10;;;;;;;;;;;9.20;29.20;;;;;;4979249;28;20005;-74
2022/04/20 05:55:36;;;;;;;;;;;9.20;29.20;;;;;;4976859;28;20480;-75
2022/04/20 05:58:03;;;;;;;;;;;9.20;29.70;;;;;;4986151;28;19936;-75
2022/04/20 06:00:30;;;;;;;;;;;9.20;29.30;;;;;;4986056;28;19926;-74
2022/04/20 06:02:58;;;;;;;;;;;9.20;29.40;;;;;;4978818;28;19925;-75
2022/04/20 06:05:25;;;;;;;;;;;9.30;29.50;;;;;;4973615;28;19934;-75
2022/04/20 06:07:53;;;;;;;;;;;9.50;29.50;;;;;;4980301;28;20017;-76
2022/04/20 06:10:20;;;;;;;;;;;9.60;29.20;;;;;;4981165;28;19933;-76
2022/04/20 06:12:46;;;;;;;;;;;9.60;29.30;;;;;;5006255;28;19932;-75
2022/04/20 06:15:13;;;;;;;;;;;9.60;29.50;;;;;;4994058;28;19926;-73
2022/04/20 06:17:40;;;;;;;;;;;9.70;29.70;;;;;;4978067;28;19933;-73
2022/04/20 06:20:07;;;;;;;;;;;9.70;29.10;;;;;;4974681;28;20404;-74
2022/04/20 06:22:34;;;;;;;;;;;9.70;28.90;;;;;;4982968;28;19926;-73
2022/04/20 06:25:03;;;;;;;;;;;9.70;28.90;;;;;;4983492;28;20253;-72
2022/04/20 06:27:30;;;;;;;;;;;9.80;28.20;;;;;;4982092;28;20025;-73
2022/04/20 06:29:57;;;;;;;;;;;9.80;28.80;;;;;;4988510;28;20300;-74
2022/04/20 06:32:24;;;;;;;;;;;9.90;28.40;;;;;;4982891;28;19932;-72
2022/04/20 06:34:51;;;;;;;;;;;9.90;28.20;;;;;;4982200;28;20300;-72
2022/04/20 06:37:19;;;;;;;;;;;10.00;27.70;;;;;;4989277;28;19930;-71
2022/04/20 06:39:45;;;;;;;;;;;10.10;27.20;;;;;;4982343;28;19980;-74
2022/04/20 06:42:13;;;;;;;;;;;10.10;26.90;;;;;;4979714;28;20365;-74
2022/04/20 06:44:40;;;;;;;;;;;10.10;27.00;;;;;;4982237;28;20282;-75
2022/04/20 06:47:07;;;;;;;;;;;10.10;26.60;;;;;;4985854;28;19930;-75
2022/04/20 06:49:34;;;;;;;;;;;9.90;27.40;;;;;;4979992;28;19926;-75
2022/04/20 07:00:16;;;;;;;;;;;10.20;26.40;;;;;;4981662;28;19932;-75
2022/04/20 07:02:43;;;;;;;;;;;10.20;26.60;;;;;;5001806;28;20282;-74
2022/04/20 07:05:10;;;;;;;;;;;10.30;26.50;;;;;;4982092;28;19930;-75
2022/04/20 07:07:37;;;;;;;;;;;10.30;26.60;;;;;;4976057;28;19987;-75
2022/04/20 07:10:04;;;;;;;;;;;10.40;26.90;;;;;;4979249;28;19934;-73
2022/04/20 07:12:32;;;;;;;;;;;10.60;26.70;;;;;;4978848;28;19934;-73
2022/04/20 07:14:59;;;;;;;;;;;10.60;25.70;;;;;;4978766;28;19940;-75
2022/04/20 07:17:25;;;;;;;;;;;10.60;26.20;;;;;;4981558;28;19934;-73
2022/04/20 07:19:52;;;;;;;;;;;10.60;25.70;;;;;;4976652;28;19933;-73
2022/04/20 07:22:19;;;;;;;;;;;10.70;26.20;;;;;;4979529;28;19948;-74
2022/04/20 07:24:45;;;;;;;;;;;10.70;25.70;;;;;;4983088;28;20013;-74
2022/04/20 07:27:13;;;;;;;;;;;10.70;25.10;;;;;;4983255;28;19934;-74
2022/04/20 07:29:41;;;;;;;;;;;10.80;25.40;;;;;;4972931;28;19979;-73
2022/04/20 07:32:08;;;;;;;;;;;11.10;24.90;;;;;;4979490;28;20521;-75
2022/04/20 07:34:35;;;;;;;;;;;11.10;24.60;;;;;;4982548;28;19932;-75
2022/04/20 07:37:03;;;;;;;;;;;11.20;24.20;;;;;;4987999;28;19930;-74
2022/04/20 07:39:30;;;;;;;;;;;11.30;24.80;;;;;;4980822;28;19932;-74
2022/04/20 07:41:56;;;;;;;;;;;11.30;24.90;;;;;;4983191;28;19934;-74
2022/04/20 07:44:23;;;;;;;;;;;11.30;23.90;;;;;;4988243;28;19948;-73
2022/04/20 07:46:51;;;;;;;;;;;11.30;23.40;;;;;;4989259;28;19926;-74
2022/04/20 07:52:02;;;;;;;;;;;11.40;23.20;;;;;;4976766;28;20218;-75
2022/04/20 07:54:29;;;;;;;;;;;11.40;23.30;;;;;;4973191;28;19938;-73
2022/04/20 07:56:56;;;;;;;;;;;11.70;23.50;;;;;;4988177;28;20263;-74
2022/04/20 07:59:22;;;;;;;;;;;11.80;23.20;;;;;;4986178;28;20381;-73
2022/04/20 08:01:51;;;;;;;;;;;11.90;22.70;;;;;;4974569;28;20021;-73
2022/04/20 08:04:19;;;;;;;;;;;12.10;22.70;;;;;;4975829;28;19934;-73
2022/04/20 08:06:46;;;;;;;;;;;12.20;22.10;;;;;;4979125;28;19926;-74
2022/04/20 08:09:13;;;;;;;;;;;12.20;23.00;;;;;;4981705;28;19933;-72
2022/04/20 08:11:39;;;;;;;;;;;12.10;22.60;;;;;;4985445;28;19932;-74
2022/04/20 08:14:13;;;;;;;;;;;12.10;22.40;;;;;;4980003;28;19933;-73
2022/04/20 08:16:40;;;;;;;;;;;12.00;22.60;;;;;;4985682;28;19926;-73
2022/04/20 08:19:07;;;;;;;;;;;12.00;22.30;;;;;;4994614;28;19961;-72
2022/04/20 08:21:35;;;;;;;;;;;12.00;22.60;;;;;;4984194;28;19926;-73
2022/04/20 08:24:02;;;;;;;;;;;12.20;22.50;;;;;;4982892;28;19937;-80
2022/04/20 08:26:28;;;;;;;;;;;12.40;21.40;;;;;;4982297;28;20296;-72
2022/04/20 08:28:55;;;;;;;;;;;12.40;22.10;;;;;;4980161;28;20299;-72
2022/04/20 08:31:22;;;;;;;;;;;12.60;21.40;;;;;;4983911;28;20381;-72
2022/04/20 08:33:49;;;;;;;;;;;12.90;21.20;;;;;;4979202;28;20376;-71
2022/04/20 08:36:16;;;;;;;;;;;13.20;20.90;;;;;;4980338;28;19961;-73
2022/04/20 08:38:44;;;;;;;;;;;13.20;21.90;;;;;;4985024;28;19926;-72
2022/04/20 08:41:12;;;;;;;;;;;13.20;21.50;;;;;;4982786;28;19929;-73
2022/04/20 08:43:40;;;;;;;;;;;13.50;21.60;;;;;;4981455;28;20351;-73
2022/04/20 08:46:09;;;;;;;;;;;13.60;20.70;;;;;;4987315;28;19932;-73
2022/04/20 08:48:35;;;;;;;;;;;13.30;20.00;;;;;;4990695;28;19932;-72
2022/04/20 08:51:05;;;;;;;;;;;13.60;21.20;;;;;;4985087;28;20282;-72
2022/04/20 08:53:32;;;;;;;;;;;13.70;20.80;;;;;;4980765;28;20289;-72
2022/04/20 08:58:42;;;;;;;;;;;13.50;19.90;;;;;;4980711;28;19926;-74
2022/04/20 09:01:09;;;;;;;;;;;13.60;19.50;;;;;;4978010;28;20278;-73
2022/04/20 09:03:36;;;;;;;;;;;13.70;20.10;;;;;;4975892;28;19926;-72
2022/04/20 09:06:04;;;;;;;;;;;13.90;20.30;;;;;;4990170;28;20306;-72
2022/04/20 09:08:31;;;;;;;;;;;14.00;18.90;;;;;;4979665;28;19926;-72
2022/04/20 09:10:58;;;;;;;;;;;14.20;19.60;;;;;;4976170;28;19952;-72
2022/04/20 09:13:33;;;;;;;;;;;14.60;18.70;;;;;;4984621;28;19930;-73
2022/04/20 09:16:05;;;;;;;;;;;14.70;17.60;;;;;;4980012;28;20032;-72
2022/04/20 09:18:31;;;;;;;;;;;14.90;18.50;;;;;;4979119;28;20066;-73
2022/04/20 09:21:05;;;;;;;;;;;14.90;16.40;;;;;;4984135;28;20254;-73
2022/04/20 09:23:32;;;;;;;;;;;15.20;16.50;;;;;;4981131;28;19933;-73
2022/04/20 09:26:06;;;;;;;;;;;15.40;15.00;;;;;;4981458;28;19938;-72
2022/04/20 09:28:36;;;;;;;;;;;15.40;15.80;;;;;;4982279;28;19929;-72
2022/04/20 09:31:03;;;;;;;;;;;15.40;17.20;;;;;;4978132;28;20109;-72
2022/04/20 09:33:54;;;;;;;;;;;15.80;15.10;;;;;;4986771;28;19930;-70
2022/04/20 09:36:36;;;;;;;;;;;15.70;14.60;;;;;;4979390;28;19941;-73
2022/04/20 09:39:03;;;;;;;;;;;15.70;13.10;;;;;;4981689;28;20761;-73
2022/04/20 09:41:30;;;;;;;;;;;15.90;13.40;;;;;;4978914;28;19926;-74
2022/04/20 09:44:11;;;;;;;;;;;15.80;12.60;;;;;;4975197;28;19934;-73
2022/04/20 09:49:34;;;;;;;;;;;16.20;12.90;;;;;;4977317;28;20503;-73
2022/04/20 09:52:08;;;;;;;;;;;16.70;11.70;;;;;;4976728;28;19926;-73
2022/04/20 09:54:36;;;;;;;;;;;16.10;12.20;;;;;;4977944;28;20128;-72
2022/04/20 09:57:11;;;;;;;;;;;17.00;13.50;;;;;;4976774;28;19933;-73
2022/04/20 09:59:54;;;;;;;;;;;16.20;12.30;;;;;;4982239;28;19938;-73
2022/04/20 10:02:21;;;;;;;;;;;15.50;13.30;;;;;;4977265;28;19929;-74
2022/04/20 10:04:48;;;;;;;;;;;15.50;12.80;;;;;;4979711;28;19930;-74
2022/04/20 10:07:15;;;;;;;;;;;15.60;12.00;;;;;;4982115;28;19926;-75
2022/04/20 10:09:43;;;;;;;;;;;15.60;12.10;;;;;;4978191;28;20024;-75
2022/04/20 10:12:11;;;;;;;;;;;15.40;12.90;;;;;;4979142;28;19936;-74
2022/04/20 10:17:26;;;;;;;;;;;15.10;12.50;;;;;;4983721;28;19936;-73
2022/04/20 10:19:53;;;;;;;;;;;15.40;12.00;;;;;;4978043;28;20308;-73
2022/04/20 10:22:21;;;;;;;;;;;15.40;12.40;;;;;;4983052;28;19983;-73
2022/04/20 10:24:50;;;;;;;;;;;15.70;12.20;;;;;;4977501;28;19934;-72
2022/04/20 10:27:22;;;;;;;;;;;15.50;12.70;;;;;;4980865;28;20649;-73
2022/04/20 10:29:55;;;;;;;;;;;15.70;12.60;;;;;;4983416;28;20012;-74
2022/04/20 10:32:23;;;;;;;;;;;16.10;12.60;;;;;;4982448;28;20037;-74
2022/04/20 10:34:52;;;;;;;;;;;15.80;12.80;;;;;;4976441;28;19956;-73
2022/04/20 10:37:19;;;;;;;;;;;15.40;12.70;;;;;;4970518;28;19930;-71
2022/04/20 10:39:47;;;;;;;;;;;16.00;14.10;;;;;;4979243;28;20549;-73
2022/04/20 10:42:21;;;;;;;;;;;15.70;11.40;;;;;;4973154;28;19933;-72
2022/04/20 10:44:57;;;;;;;;;;;15.70;11.40;;;;;;4981209;28;20416;-73
2022/04/20 10:47:26;;;;;;;;;;;15.60;12.20;;;;;;4978209;28;20415;-73
2022/04/20 10:49:53;;;;;;;;;;;15.80;11.20;;;;;;4978783;28;19926;-73
2022/04/20 10:52:22;;;;;;;;;;;16.00;11.10;;;;;;4978965;28;19926;-72
2022/04/20 10:54:50;;;;;;;;;;;16.50;10.60;;;;;;4983970;28;19926;-72
2022/04/20 10:57:17;;;;;;;;;;;16.20;11.70;;;;;;4985879;28;19925;-72
2022/04/20 10:59:44;;;;;;;;;;;16.60;11.20;;;;;;4983995;28;19980;-72
2022/04/20 11:02:15;;;;;;;;;;;16.40;11.20;;;;;;4986951;28;19930;-72
2022/04/20 11:04:46;;;;;;;;;;;16.00;12.00;;;;;;4980409;28;19926;-71
2022/04/20 11:07:17;;;;;;;;;;;16.60;10.60;;;;;;4974656;28;19941;-72
2022/04/20 11:10:02;;;;;;;;;;;16.90;10.70;;;;;;4977393;28;19934;-72
2022/04/20 11:21:20;;;;;;;;;;;16.50;11.60;;;;;;4979088;28;19933;-72
2022/04/20 11:23:55;;;;;;;;;;;16.10;10.80;;;;;;4974248;28;19933;-72
2022/04/20 11:26:24;;;;;;;;;;;16.00;11.40;;;;;;4985551;28;19972;-73
2022/04/20 11:28:54;;;;;;;;;;;16.00;10.60;;;;;;4980149;28;20300;-73
2022/04/20 11:31:20;;;;;;;;;;;15.80;10.90;;;;;;4979072;28;19936;-73
2022/04/20 11:33:50;;;;;;;;;;;16.40;12.30;;;;;;4980563;28;20392;-73
2022/04/20 11:36:17;;;;;;;;;;;16.60;10.70;;;;;;4985605;28;19926;-73
2022/04/20 11:38:45;;;;;;;;;;;16.20;10.80;;;;;;4977694;28;19981;-72
2022/04/20 11:41:16;;;;;;;;;;;16.40;11.60;;;;;;4980104;28;20353;-71
2022/04/20 11:43:43;;;;;;;;;;;17.00;11.40;;;;;;4988701;28;19926;-71
2022/04/20 11:46:10;;;;;;;;;;;16.40;9.70;;;;;;4982882;28;20357;-71
2022/04/20 11:48:49;;;;;;;;;;;16.50;11.50;;;;;;4977280;28;19989;-74
2022/04/20 11:51:23;;;;;;;;;;;16.30;12.20;;;;;;4985633;28;19932;-74
2022/04/20 11:53:50;;;;;;;;;;;16.60;11.20;;;;;;4977413;28;19938;-72
2022/04/20 11:56:17;;;;;;;;;;;16.80;11.00;;;;;;4984439;28;19934;-72
2022/04/20 11:58:51;;;;;;;;;;;17.00;10.50;;;;;;4978706;28;19933;-73
2022/04/20 12:01:20;;;;;;;;;;;16.60;11.00;;;;;;4975484;28;20297;-74
2022/04/20 12:03:50;;;;;;;;;;;16.20;10.30;;;;;;4990313;28;19926;-73
2022/04/20 12:06:18;;;;;;;;;;;16.40;11.90;;;;;;4983217;28;19934;-72
2022/04/20 12:08:50;;;;;;;;;;;17.00;12.80;;;;;;4981119;28;19979;-73
2022/04/20 12:11:17;;;;;;;;;;;17.20;11.60;;;;;;4982898;28;19965;-73
2022/04/20 12:13:43;;;;;;;;;;;16.80;10.80;;;;;;4984625;28;19925;-71
2022/04/20 12:16:11;;;;;;;;;;;17.00;10.30;;;;;;4988942;28;19932;-71
2022/04/20 12:18:40;;;;;;;;;;;17.10;10.80;;;;;;4989001;28;20299;-72
2022/04/20 12:21:28;;;;;;;;;;;16.80;9.70;;;;;;4989183;28;19934;-72
2022/04/20 12:23:56;;;;;;;;;;;17.00;10.70;;;;;;4976326;28;20021;-72
2022/04/20 12:26:30;;;;;;;;;;;17.20;10.60;;;;;;4998706;28;20017;-70
2022/04/20 12:28:58;;;;;;;;;;;17.20;11.80;;;;;;4977716;28;19979;-71
2022/04/20 12:31:25;;;;;;;;;;;17.40;11.90;;;;;;4981661;28;20012;-72
2022/04/20 12:34:01;;;;;;;;;;;17.70;10.90;;;;;;4993044;28;19926;-72
2022/04/20 12:36:29;;;;;;;;;;;17.10;9.80;;;;;;4983913;28;20199;-73
2022/04/20 12:39:00;;;;;;;;;;;16.90;10.70;;;;;;4984986;28;19979;-72
2022/04/20 12:41:45;;;;;;;;;;;16.90;11.60;;;;;;4978390;28;19934;-72
2022/04/20 12:44:49;;;;;;;;;;;16.90;11.20;;;;;;4977982;28;20017;-72
2022/04/20 12:47:34;;;;;;;;;;;16.80;11.50;;;;;;5013871;28;19933;-72
2022/04/20 12:50:19;;;;;;;;;;;16.90;11.50;;;;;;5019465;28;19936;-73
2022/04/20 12:52:50;;;;;;;;;;;17.00;11.70;;;;;;4987688;28;19930;-72
2022/04/20 12:55:18;;;;;;;;;;;17.40;12.60;;;;;;4977907;28;20388;-72
2022/04/20 13:03:27;;;;;;;;;;;18.00;11.50;;;;;;4975988;28;19933;-71
2022/04/20 13:05:54;;;;;;;;;;;17.80;10.80;;;;;;4978239;28;19940;-67
2022/04/20 13:08:21;;;;;;;;;;;18.00;10.50;;;;;;4972850;28;19926;-69
2022/04/20 13:10:50;;;;;;;;;;;17.60;10.60;;;;;;4975782;28;20353;-69
2022/04/20 13:13:17;;;;;;;;;;;17.70;10.10;;;;;;4978263;28;20007;-69
2022/04/20 13:15:44;;;;;;;;;;;17.80;11.00;;;;;;4979968;28;20013;-68
2022/04/20 13:18:12;;;;;;;;;;;17.60;10.60;;;;;;4985255;28;20641;-69
2022/04/20 13:20:39;;;;;;;;;;;17.30;10.40;;;;;;4981213;28;19926;-69
2022/04/20 13:23:06;;;;;;;;;;;17.40;11.30;;;;;;4976877;28;20321;-69
2022/04/20 13:28:29;;;;;;;;;;;17.60;10.70;;;;;;4980201;28;19932;-68
2022/04/20 13:31:14;;;;;;;;;;;17.80;10.50;;;;;;4983249;28;19934;-70
2022/04/20 13:33:42;;;;;;;;;;;17.70;10.20;;;;;;4981269;28;19949;-71
2022/04/20 13:36:09;;;;;;;;;;;17.30;11.10;;;;;;4990452;28;19926;-70
2022/04/20 13:38:36;;;;;;;;;;;17.70;11.60;;;;;;4993915;28;20024;-73
2022/04/20 13:41:03;;;;;;;;;;;17.20;10.90;;;;;;4985434;28;19941;-72
2022/04/20 13:43:31;;;;;;;;;;;17.20;11.30;;;;;;4990261;28;20323;-73
2022/04/20 13:45:58;;;;;;;;;;;17.30;10.80;;;;;;4988295;28;20286;-73
2022/04/20 13:48:25;;;;;;;;;;;17.50;10.90;;;;;;4987915;28;19947;-71
2022/04/20 13:50:52;;;;;;;;;;;17.10;11.10;;;;;;4988059;28;20285;-72
2022/04/20 13:53:18;;;;;;;;;;;17.40;11.30;;;;;;4987214;28;20433;-71
2022/04/20 13:55:45;;;;;;;;;;;17.30;11.60;;;;;;4985146;28;20010;-72
2022/04/20 13:58:12;;;;;;;;;;;17.40;11.00;;;;;;4986119;28;19972;-70
2022/04/20 14:00:40;;;;;;;;;;;17.50;10.80;;;;;;4983119;28;19926;-71
2022/04/20 14:03:08;;;;;;;;;;;17.30;10.30;;;;;;4976199;28;20373;-66
2022/04/20 14:05:34;;;;;;;;;;;17.50;11.80;;;;;;5011121;28;19926;-71
2022/04/20 14:08:01;;;;;;;;;;;17.50;11.80;;;;;;4989306;28;20017;-71
2022/04/20 14:10:28;;;;;;;;;;;17.50;11.20;;;;;;4983212;28;20465;-71
2022/04/20 14:12:54;;;;;;;;;;;17.80;12.60;;;;;;4981684;28;19930;-72
2022/04/20 14:15:21;;;;;;;;;;;17.70;10.60;;;;;;4993284;28;19976;-71
2022/04/20 14:17:49;;;;;;;;;;;17.70;11.00;;;;;;4978660;28;19926;-71
2022/04/20 14:20:17;;;;;;;;;;;17.30;11.10;;;;;;4984410;28;20029;-70
2022/04/20 14:22:44;;;;;;;;;;;17.70;12.00;;;;;;4989092;28;19932;-71
2022/04/20 14:33:28;;;;;;;;;;;17.70;10.00;;;;;;4993448;28;19987;-69
2022/04/20 14:35:55;;;;;;;;;;;17.80;10.70;;;;;;4978781;28;19948;-70
2022/04/20 14:38:22;;;;;;;;;;;17.60;10.90;;;;;;4980363;28;19938;-70
2022/04/20 14:40:50;;;;;;;;;;;17.30;11.00;;;;;;5007912;28;19981;-70
2022/04/20 14:43:16;;;;;;;;;;;17.50;12.50;;;;;;4980449;28;20369;-71
2022/04/20 14:45:43;;;;;;;;;;;17.70;11.10;;;;;;4981247;28;20033;-70
2022/04/20 14:48:11;;;;;;;;;;;17.90;10.70;;;;;;4960799;28;20258;-71
2022/04/20 14:50:39;;;;;;;;;;;18.00;11.60;;;;;;4976339;28;20026;-70
2022/04/20 14:53:07;;;;;;;;;;;18.30;10.10;;;;;;4982256;28;19930;-72
2022/04/20 14:55:35;;;;;;;;;;;17.90;10.30;;;;;;4982093;28;19930;-72
2022/04/20 14:58:02;;;;;;;;;;;17.90;10.20;;;;;;4979106;28;20028;-71
2022/04/20 15:00:29;;;;;;;;;;;17.60;10.10;;;;;;4974830;28;19926;-72
2022/04/20 15:02:55;;;;;;;;;;;17.60;10.30;;;;;;4977729;28;20389;-71
2022/04/20 15:05:23;;;;;;;;;;;17.90;10.50;;;;;;4976373;28;20012;-71
2022/04/20 15:07:52;;;;;;;;;;;17.80;10.50;;;;;;4982088;28;19961;-71
2022/04/20 15:10:18;;;;;;;;;;;17.80;10.60;;;;;;4981217;28;19934;-71
2022/04/20 15:12:46;;;;;;;;;;;17.70;11.00;;;;;;4966140;28;19961;-71
2022/04/20 15:15:14;;;;;;;;;;;17.80;10.50;;;;;;4979152;28;19934;-72
2022/04/20 15:17:41;;;;;;;;;;;17.60;10.00;;;;;;4984702;28;20004;-72
2022/04/20 15:20:08;;;;;;;;;;;17.70;10.20;;;;;;4974718;28;19926;-72
2022/04/20 15:22:35;;;;;;;;;;;18.00;10.60;;;;;;4981203;28;20067;-71
2022/04/20 15:25:03;;;;;;;;;;;18.00;10.20;;;;;;4992294;28;19926;-71